Terminal Aerodrome Forecast
Issued by NWS Milwaukee/Sullivan, WI

Home | Current Version | Previous Version | Text Only | Print | Product List | Glossary On
Versions: 1 2 3 4 5 6 7 8 9 10 11 12 13 14 15 16 17 18 19 20 21
000
FTUS43 KMKX 252342
TAFMKE
TAF
KMKE 252342Z 2600/2706 14012KT P6SM BKN120
     FM261200 17010KT P6SM VCTS BKN035 OVC060CB
     FM261500 18010KT 5SM SHRA BR VCTS BKN035CB
     FM261600 18010KT 6SM SHRA VCTS BKN015 BKN035CB
     FM262000 20012G21KT 5SM -SHRA BR BKN015 BKN020
     FM270000 19008KT 5SM SHRA BR OVC035=

USA.gov is the U.S. government's official web portal to all federal, state and local government web resources and services.